Time;durP1;ratioP1;P1;durP2;ratioP2;P2;SDS_P1;SDS_P2;PMS_P1;PMS_P2;Temp;Humidity;BMP_temperature;BMP_pressure;BME280_temperature;BME280_humidity;BME280_pressure;Samples;Min_cycle;Max_cycle;Signal;HPM_P1;HPM_P2
2024/01/24 00:02:17;;;;;;;7.03;3.40;;;;;;;;;;5094136;28;20040;-64
2024/01/24 00:04:43;;;;;;;6.50;3.20;;;;;;;;;;5111278;27;20039;-64
2024/01/24 00:07:08;;;;;;;7.93;3.43;;;;;;;;;;5105762;27;20064;-64
2024/01/24 00:09:33;;;;;;;5.63;2.80;;;;;;;;;;5119211;27;20023;-64
2024/01/24 00:11:59;;;;;;;8.30;3.50;;;;;;;;;;5117118;27;20058;-64
2024/01/24 00:14:24;;;;;;;7.57;3.67;;;;;;;;;;5120276;27;20015;-64
2024/01/24 00:16:49;;;;;;;4.77;2.77;;;;;;;;;;5105859;27;20464;-64
2024/01/24 00:19:14;;;;;;;5.57;3.03;;;;;;;;;;5114251;27;20051;-64
2024/01/24 00:21:40;;;;;;;6.57;3.43;;;;;;;;;;5112899;27;20030;-65
2024/01/24 00:24:05;;;;;;;7.47;4.43;;;;;;;;;;5114773;27;20429;-65
2024/01/24 00:26:30;;;;;;;6.63;3.50;;;;;;;;;;5112554;27;20047;-64
2024/01/24 00:28:56;;;;;;;6.27;3.00;;;;;;;;;;5106910;27;20088;-65
2024/01/24 00:31:21;;;;;;;8.43;3.83;;;;;;;;;;5115860;27;20030;-64
2024/01/24 00:33:46;;;;;;;7.67;2.90;;;;;;;;;;5112610;27;20023;-65
2024/01/24 00:36:12;;;;;;;6.00;3.23;;;;;;;;;;5112849;27;20353;-64
2024/01/24 00:38:37;;;;;;;9.60;4.07;;;;;;;;;;5111643;27;20486;-64
2024/01/24 00:41:02;;;;;;;7.53;4.03;;;;;;;;;;5108776;27;20092;-65
2024/01/24 00:43:27;;;;;;;9.13;4.77;;;;;;;;;;5113175;27;20012;-65
2024/01/24 00:45:53;;;;;;;7.23;3.67;;;;;;;;;;5110608;28;20023;-64
2024/01/24 00:48:18;;;;;;;7.13;3.63;;;;;;;;;;5113570;27;20020;-65
2024/01/24 00:50:43;;;;;;;8.40;3.60;;;;;;;;;;5119900;27;20031;-64
2024/01/24 00:53:14;;;;;;;10.67;4.23;;;;;;;;;;5111885;28;20020;-65
2024/01/24 00:55:40;;;;;;;6.75;3.55;;;;;;;;;;5104406;27;20396;-64
2024/01/24 00:58:05;;;;;;;7.27;3.80;;;;;;;;;;5113435;27;20030;-64
2024/01/24 01:00:30;;;;;;;10.10;4.17;;;;;;;;;;5112329;27;20422;-65
2024/01/24 01:02:56;;;;;;;6.73;3.20;;;;;;;;;;5115134;27;20047;-65
2024/01/24 01:05:21;;;;;;;5.70;3.30;;;;;;;;;;5104313;27;20049;-64
2024/01/24 01:07:46;;;;;;;8.93;4.40;;;;;;;;;;5110334;27;20023;-65
2024/01/24 01:10:11;;;;;;;9.60;4.60;;;;;;;;;;5114778;27;20016;-65
2024/01/24 01:12:37;;;;;;;9.40;5.07;;;;;;;;;;5106263;27;20032;-65
2024/01/24 01:15:02;;;;;;;12.23;3.87;;;;;;;;;;5095403;27;20031;-66
2024/01/24 01:17:27;;;;;;;10.53;4.87;;;;;;;;;;5117953;27;20020;-65
2024/01/24 01:19:52;;;;;;;9.77;4.30;;;;;;;;;;5113243;27;20027;-64
2024/01/24 01:22:18;;;;;;;10.70;4.40;;;;;;;;;;5119545;27;20019;-65
2024/01/24 01:24:43;;;;;;;10.40;4.20;;;;;;;;;;5112132;27;20028;-65
2024/01/24 01:27:09;;;;;;;11.67;3.83;;;;;;;;;;5115422;27;20035;-64
2024/01/24 01:29:34;;;;;;;10.63;4.33;;;;;;;;;;5115021;27;20475;-65
2024/01/24 01:32:00;;;;;;;7.67;3.73;;;;;;;;;;5109120;27;20050;-64
2024/01/24 01:34:25;;;;;;;4.80;2.63;;;;;;;;;;5116520;27;20061;-65
2024/01/24 01:36:50;;;;;;;6.77;3.33;;;;;;;;;;5110081;27;20028;-64
2024/01/24 01:39:16;;;;;;;9.50;4.17;;;;;;;;;;5116285;27;20055;-65
2024/01/24 01:41:45;;;;;;;6.37;2.73;;;;;;;;;;5112994;27;20015;-64
2024/01/24 01:44:10;;;;;;;9.37;3.33;;;;;;;;;;5106960;28;20087;-65
2024/01/24 01:46:37;;;;;;;5.53;2.47;;;;;;;;;;5112378;27;20408;-65
2024/01/24 01:49:02;;;;;;;1.40;0.57;;;;;;;;;;5104404;27;20521;-65
2024/01/24 01:51:28;;;;;;;0.73;0.57;;;;;;;;;;5103176;27;20024;-65
2024/01/24 01:53:53;;;;;;;1.40;0.73;;;;;;;;;;5109488;27;20746;-64
2024/01/24 01:56:20;;;;;;;0.27;0.27;;;;;;;;;;5113976;27;20015;-65
2024/01/24 01:58:46;;;;;;;0.23;0.23;;;;;;;;;;5110264;27;20578;-64
2024/01/24 02:01:12;;;;;;;0.10;0.10;;;;;;;;;;5105701;27;20016;-64
2024/01/24 02:03:38;;;;;;;0.30;0.30;;;;;;;;;;5097240;28;20055;-65
2024/01/24 02:06:03;;;;;;;0.53;0.50;;;;;;;;;;5114246;27;20104;-64
2024/01/24 02:08:32;;;;;;;0.10;0.10;;;;;;;;;;5112935;27;20445;-64
2024/01/24 02:10:57;;;;;;;0.10;0.10;;;;;;;;;;5113150;27;20108;-65
2024/01/24 02:13:27;;;;;;;0.57;0.50;;;;;;;;;;5106858;27;20055;-64
2024/01/24 02:15:52;;;;;;;0.40;0.30;;;;;;;;;;5107844;28;20016;-65
2024/01/24 02:18:17;;;;;;;0.50;0.40;;;;;;;;;;5113015;27;20505;-64
2024/01/24 02:20:43;;;;;;;0.47;0.20;;;;;;;;;;5104550;27;20024;-64
2024/01/24 02:23:09;;;;;;;1.10;0.30;;;;;;;;;;5104598;28;20395;-64
2024/01/24 02:25:34;;;;;;;0.13;0.13;;;;;;;;;;5118573;27;20077;-64
2024/01/24 02:28:00;;;;;;;0.10;0.10;;;;;;;;;;5120133;28;20365;-64
2024/01/24 02:30:25;;;;;;;0.83;0.57;;;;;;;;;;5116368;28;20021;-64
2024/01/24 02:32:50;;;;;;;0.20;0.20;;;;;;;;;;5117864;28;20023;-64
2024/01/24 02:35:15;;;;;;;0.00;0.00;;;;;;;;;;5116138;28;20039;-64
2024/01/24 02:37:41;;;;;;;0.00;0.00;;;;;;;;;;5119199;28;20360;-65
2024/01/24 02:40:06;;;;;;;0.37;0.23;;;;;;;;;;5116079;28;20034;-63
2024/01/24 02:42:31;;;;;;;0.20;0.10;;;;;;;;;;5121051;28;20451;-64
2024/01/24 02:44:57;;;;;;;3.63;0.80;;;;;;;;;;5117284;28;20046;-64
2024/01/24 02:47:22;;;;;;;1.80;0.80;;;;;;;;;;5110875;28;20436;-63
2024/01/24 02:49:48;;;;;;;2.23;1.03;;;;;;;;;;5107785;28;20019;-64
2024/01/24 02:52:13;;;;;;;2.63;0.80;;;;;;;;;;5110681;28;20015;-64
2024/01/24 02:54:41;;;;;;;1.83;0.80;;;;;;;;;;5114177;28;20375;-64
2024/01/24 02:57:06;;;;;;;2.87;0.87;;;;;;;;;;5113036;28;20519;-64
2024/01/24 02:59:32;;;;;;;2.30;0.83;;;;;;;;;;5110229;28;20027;-64
2024/01/24 03:01:57;;;;;;;1.17;0.70;;;;;;;;;;5111531;28;20027;-64
2024/01/24 03:04:22;;;;;;;1.23;0.70;;;;;;;;;;5112843;27;20048;-64
2024/01/24 03:06:47;;;;;;;1.80;0.60;;;;;;;;;;5107973;27;20023;-65
2024/01/24 03:09:13;;;;;;;1.30;0.90;;;;;;;;;;5104768;27;20066;-65
2024/01/24 03:11:38;;;;;;;2.13;0.70;;;;;;;;;;5113034;27;20027;-64
2024/01/24 03:14:04;;;;;;;1.33;0.70;;;;;;;;;;5113340;27;20030;-64
2024/01/24 03:16:29;;;;;;;6.20;0.90;;;;;;;;;;5114307;27;20024;-64
2024/01/24 03:18:54;;;;;;;2.63;0.60;;;;;;;;;;5107320;27;20106;-64
2024/01/24 03:21:20;;;;;;;2.40;0.97;;;;;;;;;;5107961;27;20387;-64
2024/01/24 03:23:45;;;;;;;2.63;0.70;;;;;;;;;;5113092;27;20061;-64
2024/01/24 03:26:13;;;;;;;1.20;0.60;;;;;;;;;;5114053;27;20289;-65
2024/01/24 03:28:38;;;;;;;2.30;0.70;;;;;;;;;;5116209;27;20019;-65
2024/01/24 03:31:03;;;;;;;0.23;0.23;;;;;;;;;;5115644;27;20027;-64
2024/01/24 03:33:28;;;;;;;0.57;0.40;;;;;;;;;;5111881;27;20050;-65
2024/01/24 03:35:54;;;;;;;0.10;0.10;;;;;;;;;;5113544;27;20414;-65
2024/01/24 03:38:19;;;;;;;0.20;0.20;;;;;;;;;;5103271;28;20039;-64
2024/01/24 03:40:45;;;;;;;0.00;0.00;;;;;;;;;;5118748;27;20030;-64
2024/01/24 03:43:10;;;;;;;0.10;0.10;;;;;;;;;;5119491;27;20034;-64
2024/01/24 03:45:36;;;;;;;0.07;0.07;;;;;;;;;;5123677;27;20027;-63
2024/01/24 03:48:03;;;;;;;0.10;0.10;;;;;;;;;;5124242;27;20023;-63
2024/01/24 03:50:28;;;;;;;0.10;0.10;;;;;;;;;;5123603;27;20111;-63
2024/01/24 03:52:54;;;;;;;0.10;0.10;;;;;;;;;;5107023;27;20102;-63
2024/01/24 03:55:19;;;;;;;0.10;0.10;;;;;;;;;;5108068;27;20105;-62
2024/01/24 03:57:44;;;;;;;0.00;0.00;;;;;;;;;;5112465;27;20023;-63
2024/01/24 04:00:10;;;;;;;0.00;0.00;;;;;;;;;;5112628;27;20024;-63
2024/01/24 04:02:35;;;;;;;0.10;0.10;;;;;;;;;;5115506;27;20430;-64
2024/01/24 04:05:00;;;;;;;0.10;0.10;;;;;;;;;;5116453;27;20059;-62
2024/01/24 04:07:26;;;;;;;0.10;0.10;;;;;;;;;;5106179;27;20030;-62
2024/01/24 04:09:51;;;;;;;0.30;0.30;;;;;;;;;;5115962;27;20492;-61
2024/01/24 04:12:16;;;;;;;0.57;0.20;;;;;;;;;;5112530;27;20031;-61
2024/01/24 04:14:41;;;;;;;0.27;0.20;;;;;;;;;;5119548;27;20031;-62
2024/01/24 04:17:07;;;;;;;0.20;0.20;;;;;;;;;;5114430;27;20464;-62
2024/01/24 04:19:32;;;;;;;4.90;0.90;;;;;;;;;;5116101;27;20045;-61
2024/01/24 04:21:57;;;;;;;5.10;0.50;;;;;;;;;;5112259;27;20035;-61
2024/01/24 04:24:22;;;;;;;6.30;1.30;;;;;;;;;;5113632;27;20028;-61
2024/01/24 04:26:48;;;;;;;2.87;0.53;;;;;;;;;;5113415;27;20020;-62
2024/01/24 04:29:13;;;;;;;4.33;0.90;;;;;;;;;;5114151;27;20475;-63
2024/01/24 04:31:38;;;;;;;3.27;0.70;;;;;;;;;;5110467;27;20083;-62
2024/01/24 04:34:04;;;;;;;9.23;1.23;;;;;;;;;;5117133;27;20012;-62
2024/01/24 04:36:30;;;;;;;5.07;0.93;;;;;;;;;;5113340;27;20112;-61
2024/01/24 04:38:55;;;;;;;2.60;0.90;;;;;;;;;;5113456;27;20024;-60
2024/01/24 04:41:20;;;;;;;5.13;0.80;;;;;;;;;;5097867;27;20101;-61
2024/01/24 04:43:46;;;;;;;9.17;1.73;;;;;;;;;;5127493;27;20027;-61
2024/01/24 04:46:14;;;;;;;8.40;1.13;;;;;;;;;;5126320;27;20019;-60
2024/01/24 04:48:41;;;;;;;5.03;1.40;;;;;;;;;;5121015;27;20028;-60
2024/01/24 04:51:06;;;;;;;3.80;0.70;;;;;;;;;;5116659;27;20050;-61
2024/01/24 04:53:32;;;;;;;4.83;1.03;;;;;;;;;;5125081;27;20462;-60
2024/01/24 04:55:57;;;;;;;3.70;0.90;;;;;;;;;;5117798;27;20368;-61
2024/01/24 04:58:22;;;;;;;6.90;1.00;;;;;;;;;;5116670;27;20019;-60
2024/01/24 05:00:48;;;;;;;8.13;1.10;;;;;;;;;;5111715;27;20114;-61
2024/01/24 05:03:14;;;;;;;5.27;1.57;;;;;;;;;;5109623;27;20563;-61
2024/01/24 05:05:40;;;;;;;3.80;1.00;;;;;;;;;;5084200;28;20455;-60
2024/01/24 05:08:05;;;;;;;8.97;1.13;;;;;;;;;;5091150;28;20024;-60
2024/01/24 05:10:31;;;;;;;9.17;1.87;;;;;;;;;;5089808;28;20137;-61
2024/01/24 05:12:56;;;;;;;7.87;1.20;;;;;;;;;;5096830;28;20495;-60
2024/01/24 05:15:21;;;;;;;10.00;1.30;;;;;;;;;;5095001;28;20019;-62
2024/01/24 05:17:46;;;;;;;5.10;1.27;;;;;;;;;;5083637;28;20032;-61
2024/01/24 05:20:12;;;;;;;9.33;1.50;;;;;;;;;;5092562;28;20031;-60
2024/01/24 05:22:37;;;;;;;7.87;1.33;;;;;;;;;;5091954;28;20020;-60
2024/01/24 05:25:02;;;;;;;8.60;1.40;;;;;;;;;;5094531;28;20448;-61
2024/01/24 05:27:28;;;;;;;10.30;1.80;;;;;;;;;;5094835;28;20024;-60
2024/01/24 05:29:53;;;;;;;12.50;1.97;;;;;;;;;;5088263;28;20039;-61
2024/01/24 05:32:18;;;;;;;10.07;1.97;;;;;;;;;;5091664;28;20038;-61
2024/01/24 05:34:44;;;;;;;8.40;1.60;;;;;;;;;;5093332;28;20016;-61
2024/01/24 05:37:09;;;;;;;8.53;1.20;;;;;;;;;;5096721;28;20024;-61
2024/01/24 05:39:34;;;;;;;11.40;1.70;;;;;;;;;;5092496;28;20020;-61
2024/01/24 05:41:59;;;;;;;10.53;1.90;;;;;;;;;;5090124;28;20358;-61
2024/01/24 05:44:25;;;;;;;8.90;1.73;;;;;;;;;;5091962;28;20020;-63
2024/01/24 05:46:50;;;;;;;10.03;1.90;;;;;;;;;;5090227;28;20055;-63
2024/01/24 05:49:15;;;;;;;10.43;1.90;;;;;;;;;;5093287;28;20024;-63
2024/01/24 05:51:42;;;;;;;11.33;1.53;;;;;;;;;;5084800;28;20288;-63
2024/01/24 05:54:07;;;;;;;11.80;1.40;;;;;;;;;;5088961;28;20020;-63
2024/01/24 05:56:32;;;;;;;8.57;1.60;;;;;;;;;;5094010;28;20024;-63
2024/01/24 05:58:58;;;;;;;7.40;1.90;;;;;;;;;;5095436;28;20111;-63
2024/01/24 06:01:23;;;;;;;7.90;1.50;;;;;;;;;;5088824;28;20034;-63
2024/01/24 06:03:48;;;;;;;12.33;2.00;;;;;;;;;;5103153;27;20047;-63
2024/01/24 06:06:14;;;;;;;11.13;1.73;;;;;;;;;;5117994;27;20012;-63
2024/01/24 06:08:39;;;;;;;10.33;2.63;;;;;;;;;;5109789;27;20052;-63
2024/01/24 06:11:05;;;;;;;13.87;1.77;;;;;;;;;;5115999;27;20079;-64
2024/01/24 06:13:30;;;;;;;16.23;2.53;;;;;;;;;;5109667;27;20049;-63
2024/01/24 06:15:56;;;;;;;10.03;1.87;;;;;;;;;;5109183;28;20597;-63
2024/01/24 06:18:21;;;;;;;10.47;1.93;;;;;;;;;;5099359;27;20016;-63
2024/01/24 06:20:47;;;;;;;17.30;2.70;;;;;;;;;;5109941;27;20019;-63
2024/01/24 06:23:12;;;;;;;12.83;3.07;;;;;;;;;;5102090;27;20214;-62
2024/01/24 06:25:37;;;;;;;15.63;2.10;;;;;;;;;;5103215;27;20121;-63
2024/01/24 06:28:03;;;;;;;12.47;2.73;;;;;;;;;;5114374;28;20023;-63
2024/01/24 06:30:28;;;;;;;11.63;1.90;;;;;;;;;;5113559;28;20027;-63
2024/01/24 06:32:53;;;;;;;11.07;1.83;;;;;;;;;;5109472;28;20019;-63
2024/01/24 06:35:19;;;;;;;10.70;2.23;;;;;;;;;;5090372;28;20017;-63
2024/01/24 06:37:45;;;;;;;11.93;2.70;;;;;;;;;;5109455;28;20024;-63
2024/01/24 06:40:10;;;;;;;20.43;3.43;;;;;;;;;;5116431;27;20353;-63
2024/01/24 06:42:36;;;;;;;12.40;2.33;;;;;;;;;;5114362;27;20464;-63
2024/01/24 06:45:01;;;;;;;11.00;2.63;;;;;;;;;;5115982;27;20051;-63
2024/01/24 06:47:27;;;;;;;12.87;2.13;;;;;;;;;;5118705;27;20077;-63
2024/01/24 06:49:52;;;;;;;18.07;2.97;;;;;;;;;;5114317;27;20118;-63
2024/01/24 06:52:17;;;;;;;12.80;2.00;;;;;;;;;;5116583;27;20368;-63
2024/01/24 06:54:42;;;;;;;16.93;2.70;;;;;;;;;;5100352;28;20047;-64
2024/01/24 06:57:08;;;;;;;14.17;2.50;;;;;;;;;;5099445;28;20028;-63
2024/01/24 06:59:33;;;;;;;13.80;3.03;;;;;;;;;;5097850;28;20101;-64
2024/01/24 07:01:59;;;;;;;22.50;3.40;;;;;;;;;;5109698;27;20024;-63
2024/01/24 07:04:25;;;;;;;16.33;2.50;;;;;;;;;;5119962;27;20063;-64
2024/01/24 07:06:50;;;;;;;13.67;3.70;;;;;;;;;;5116011;27;20511;-62
2024/01/24 07:09:15;;;;;;;12.00;2.47;;;;;;;;;;5106245;28;20544;-63
2024/01/24 07:11:41;;;;;;;10.97;1.87;;;;;;;;;;5102466;28;20031;-64
2024/01/24 07:14:06;;;;;;;16.47;2.57;;;;;;;;;;5105826;27;20027;-64
2024/01/24 07:16:31;;;;;;;14.50;2.60;;;;;;;;;;5113887;27;20030;-64
2024/01/24 07:18:57;;;;;;;18.93;2.50;;;;;;;;;;5104168;27;20024;-64
2024/01/24 07:21:22;;;;;;;17.23;2.73;;;;;;;;;;5116752;27;20081;-64
2024/01/24 07:23:47;;;;;;;21.47;3.73;;;;;;;;;;5107056;27;20019;-64
2024/01/24 07:26:13;;;;;;;14.13;2.87;;;;;;;;;;5117075;27;20095;-63
2024/01/24 07:28:38;;;;;;;17.93;1.87;;;;;;;;;;5112911;27;20068;-64
2024/01/24 07:31:03;;;;;;;14.83;2.53;;;;;;;;;;5119747;27;20055;-64
2024/01/24 07:33:29;;;;;;;12.87;2.43;;;;;;;;;;5118686;27;20109;-64
2024/01/24 07:35:54;;;;;;;22.13;3.10;;;;;;;;;;5115304;27;20029;-64
2024/01/24 07:38:20;;;;;;;19.67;3.20;;;;;;;;;;5117351;27;20422;-64
2024/01/24 07:40:45;;;;;;;11.30;2.00;;;;;;;;;;5114141;27;20039;-64
2024/01/24 07:43:10;;;;;;;13.57;2.63;;;;;;;;;;5115244;27;20030;-64
2024/01/24 07:45:36;;;;;;;14.83;2.83;;;;;;;;;;5113817;27;20071;-64
2024/01/24 07:48:01;;;;;;;17.77;2.97;;;;;;;;;;5096674;27;20034;-64
2024/01/24 07:50:27;;;;;;;12.93;3.17;;;;;;;;;;5112146;27;20023;-63
2024/01/24 07:52:52;;;;;;;13.17;2.90;;;;;;;;;;5110822;28;20532;-64
2024/01/24 07:55:18;;;;;;;16.83;2.90;;;;;;;;;;5106513;27;20423;-64
2024/01/24 07:57:43;;;;;;;24.70;3.20;;;;;;;;;;5115375;27;20019;-64
2024/01/24 08:00:08;;;;;;;22.80;3.60;;;;;;;;;;5118463;27;20012;-64
2024/01/24 08:02:34;;;;;;;12.90;2.40;;;;;;;;;;5112986;27;20486;-64
2024/01/24 08:05:00;;;;;;;14.80;3.00;;;;;;;;;;5116109;27;20057;-60
2024/01/24 08:07:25;;;;;;;11.80;1.90;;;;;;;;;;5110858;27;20034;-61
2024/01/24 08:09:50;;;;;;;17.30;3.67;;;;;;;;;;5110678;28;20035;-60
2024/01/24 08:12:16;;;;;;;9.57;2.60;;;;;;;;;;5118313;27;20106;-60
2024/01/24 08:14:41;;;;;;;19.63;2.30;;;;;;;;;;5112982;27;20022;-60
2024/01/24 08:17:08;;;;;;;19.43;2.90;;;;;;;;;;5112217;27;20122;-61
2024/01/24 08:19:33;;;;;;;18.27;4.10;;;;;;;;;;5107617;28;20027;-60
2024/01/24 08:21:58;;;;;;;15.13;2.53;;;;;;;;;;5114558;27;20689;-61
2024/01/24 08:24:24;;;;;;;10.00;1.87;;;;;;;;;;5109447;27;20023;-60
2024/01/24 08:26:50;;;;;;;22.73;3.13;;;;;;;;;;5114810;27;20107;-60
2024/01/24 08:29:15;;;;;;;12.47;2.30;;;;;;;;;;5113180;27;20077;-61
2024/01/24 08:31:41;;;;;;;20.60;3.47;;;;;;;;;;5110143;27;20021;-61
2024/01/24 08:34:07;;;;;;;16.90;2.60;;;;;;;;;;5122536;27;20023;-60
2024/01/24 08:36:32;;;;;;;11.27;1.97;;;;;;;;;;5118094;27;20092;-60
2024/01/24 08:38:57;;;;;;;13.67;3.33;;;;;;;;;;5118202;27;20024;-60
2024/01/24 08:41:22;;;;;;;12.10;2.13;;;;;;;;;;5114609;27;20023;-60
2024/01/24 08:43:48;;;;;;;9.97;2.33;;;;;;;;;;5111204;27;20019;-60
2024/01/24 08:46:13;;;;;;;19.80;2.53;;;;;;;;;;5117840;27;20011;-60
2024/01/24 08:48:39;;;;;;;10.90;2.33;;;;;;;;;;5114841;27;20062;-60
2024/01/24 08:51:04;;;;;;;13.67;2.30;;;;;;;;;;5116167;27;20030;-60
2024/01/24 08:53:29;;;;;;;22.77;3.33;;;;;;;;;;5114545;27;20020;-61
2024/01/24 08:55:54;;;;;;;14.20;2.70;;;;;;;;;;5112856;27;20057;-61
2024/01/24 08:58:20;;;;;;;12.07;2.70;;;;;;;;;;5118370;27;20012;-60
2024/01/24 09:00:45;;;;;;;13.97;2.70;;;;;;;;;;5104865;27;20024;-60
2024/01/24 09:03:11;;;;;;;20.47;3.60;;;;;;;;;;5106598;27;20048;-60
2024/01/24 09:05:36;;;;;;;13.40;2.93;;;;;;;;;;5114008;27;20221;-60
2024/01/24 09:08:01;;;;;;;19.77;3.50;;;;;;;;;;5112907;27;20032;-60
2024/01/24 09:10:27;;;;;;;12.97;3.03;;;;;;;;;;5121138;27;20470;-61
2024/01/24 09:12:52;;;;;;;14.50;2.27;;;;;;;;;;5103198;27;20024;-61
2024/01/24 09:15:17;;;;;;;14.10;2.77;;;;;;;;;;5108257;27;20110;-64
2024/01/24 09:17:43;;;;;;;23.83;2.97;;;;;;;;;;5105047;27;20495;-61
2024/01/24 09:20:09;;;;;;;14.87;2.67;;;;;;;;;;5088817;28;20479;-60
2024/01/24 09:22:34;;;;;;;33.40;3.93;;;;;;;;;;5113055;27;20049;-60
2024/01/24 09:24:59;;;;;;;22.23;3.43;;;;;;;;;;5114413;27;20371;-61
2024/01/24 09:27:25;;;;;;;16.53;2.83;;;;;;;;;;5103053;27;20026;-61
2024/01/24 09:29:50;;;;;;;11.07;2.47;;;;;;;;;;5115778;27;20464;-61
2024/01/24 09:32:16;;;;;;;11.30;2.30;;;;;;;;;;5118221;27;20433;-61
2024/01/24 09:34:42;;;;;;;20.40;3.63;;;;;;;;;;5109177;27;20023;-61
2024/01/24 09:37:07;;;;;;;14.40;3.17;;;;;;;;;;5118299;27;20098;-60
2024/01/24 09:39:33;;;;;;;18.17;3.50;;;;;;;;;;5116422;27;20091;-61
2024/01/24 09:41:59;;;;;;;15.23;2.77;;;;;;;;;;5113965;27;20023;-61
2024/01/24 09:44:24;;;;;;;13.00;2.50;;;;;;;;;;5117583;27;20015;-60
2024/01/24 09:46:52;;;;;;;20.47;3.10;;;;;;;;;;5110019;27;20020;-60
2024/01/24 09:49:18;;;;;;;11.27;2.10;;;;;;;;;;5116497;27;20031;-60
2024/01/24 09:51:44;;;;;;;20.63;3.90;;;;;;;;;;5111490;27;20372;-61
2024/01/24 09:54:10;;;;;;;19.97;3.43;;;;;;;;;;5110748;27;20043;-61
2024/01/24 09:56:36;;;;;;;16.37;2.83;;;;;;;;;;5109451;28;20361;-61
2024/01/24 09:59:05;;;;;;;9.67;2.20;;;;;;;;;;5107259;27;20471;-60
2024/01/24 10:01:32;;;;;;;14.47;3.00;;;;;;;;;;5112344;27;20016;-60
2024/01/24 10:03:59;;;;;;;13.60;2.63;;;;;;;;;;5109375;27;20052;-60
2024/01/24 10:06:25;;;;;;;14.90;3.20;;;;;;;;;;5113557;27;20106;-60
2024/01/24 10:08:50;;;;;;;14.13;3.57;;;;;;;;;;5114031;27;20099;-60
2024/01/24 10:11:15;;;;;;;15.10;3.30;;;;;;;;;;5111024;28;20027;-59
2024/01/24 10:13:40;;;;;;;15.53;2.70;;;;;;;;;;5112699;27;20011;-61
2024/01/24 10:16:07;;;;;;;13.70;2.40;;;;;;;;;;5107609;27;20494;-62
2024/01/24 10:18:32;;;;;;;14.90;3.10;;;;;;;;;;5107539;27;20456;-60
2024/01/24 10:20:58;;;;;;;17.07;3.23;;;;;;;;;;5116996;27;20026;-61
2024/01/24 10:23:23;;;;;;;18.00;2.70;;;;;;;;;;5113115;28;20054;-60
2024/01/24 10:25:48;;;;;;;11.30;1.80;;;;;;;;;;5113782;27;20473;-61
2024/01/24 10:28:14;;;;;;;15.83;3.70;;;;;;;;;;5117306;27;20019;-60
2024/01/24 10:30:42;;;;;;;10.57;2.50;;;;;;;;;;5104335;28;20052;-61
2024/01/24 10:33:11;;;;;;;13.40;2.60;;;;;;;;;;5098836;28;20020;-61
2024/01/24 10:35:37;;;;;;;17.37;2.87;;;;;;;;;;5107788;28;20480;-60
2024/01/24 10:38:02;;;;;;;12.67;2.43;;;;;;;;;;5106712;28;20043;-60
2024/01/24 10:40:28;;;;;;;12.87;2.53;;;;;;;;;;5116670;28;20058;-60
2024/01/24 10:42:59;;;;;;;18.87;2.40;;;;;;;;;;5114967;28;20039;-60
2024/01/24 10:45:26;;;;;;;13.05;2.50;;;;;;;;;;5114684;28;20050;-61
2024/01/24 10:47:52;;;;;;;15.17;2.80;;;;;;;;;;5114380;28;20034;-60
2024/01/24 10:50:18;;;;;;;13.63;2.50;;;;;;;;;;5107074;28;20020;-60
2024/01/24 10:52:44;;;;;;;25.47;4.30;;;;;;;;;;5111193;28;20110;-60
2024/01/24 10:55:11;;;;;;;23.17;3.27;;;;;;;;;;5117677;28;20469;-60
2024/01/24 10:57:39;;;;;;;10.00;2.47;;;;;;;;;;5116465;28;20024;-60
2024/01/24 11:00:15;;;;;;;10.57;2.67;;;;;;;;;;5111729;28;20365;-60
2024/01/24 11:02:43;;;;;;;8.60;2.27;;;;;;;;;;5120778;28;20050;-61
2024/01/24 11:05:19;;;;;;;10.93;2.20;;;;;;;;;;5094222;28;20024;-60
2024/01/24 11:08:07;;;;;;;18.03;2.53;;;;;;;;;;5090442;28;20020;-60
2024/01/24 11:10:34;;;;;;;16.27;2.60;;;;;;;;;;5081735;28;20077;-64
2024/01/24 11:13:01;;;;;;;14.07;2.33;;;;;;;;;;5092670;28;20081;-61
2024/01/24 11:15:28;;;;;;;17.60;2.30;;;;;;;;;;5094574;28;20043;-61
2024/01/24 11:18:12;;;;;;;15.60;2.30;;;;;;;;;;5092000;28;20073;-61
2024/01/24 11:20:47;;;;;;;12.80;3.00;;;;;;;;;;5088733;28;20020;-61
2024/01/24 11:23:31;;;;;;;10.83;2.43;;;;;;;;;;5088112;28;20020;-60
2024/01/24 11:25:57;;;;;;;22.40;2.70;;;;;;;;;;5094485;28;20016;-60
2024/01/24 11:28:25;;;;;;;13.50;2.17;;;;;;;;;;5097363;28;20028;-60
2024/01/24 11:30:50;;;;;;;12.80;3.10;;;;;;;;;;5087279;28;20016;-61
2024/01/24 11:33:16;;;;;;;11.83;2.80;;;;;;;;;;5094144;28;20271;-61
2024/01/24 11:35:44;;;;;;;10.83;2.30;;;;;;;;;;5095211;28;20012;-60
2024/01/24 11:38:31;;;;;;;17.47;2.67;;;;;;;;;;5090288;28;20034;-64
2024/01/24 11:41:12;;;;;;;16.73;2.97;;;;;;;;;;5093053;28;20060;-64
2024/01/24 11:43:41;;;;;;;11.27;1.90;;;;;;;;;;5091113;28;20032;-64
2024/01/24 11:46:07;;;;;;;8.80;2.03;;;;;;;;;;5091037;28;20067;-64
2024/01/24 11:48:34;;;;;;;12.27;1.83;;;;;;;;;;5097390;28;20047;-65
2024/01/24 11:51:01;;;;;;;15.17;2.63;;;;;;;;;;5098650;28;20024;-62
2024/01/24 11:53:26;;;;;;;14.13;2.63;;;;;;;;;;5094186;28;20503;-63
2024/01/24 11:56:02;;;;;;;17.30;2.80;;;;;;;;;;5093562;28;20081;-64
2024/01/24 11:58:28;;;;;;;10.27;1.97;;;;;;;;;;5075199;28;20032;-64
2024/01/24 12:00:59;;;;;;;10.07;2.00;;;;;;;;;;5102975;28;20038;-64
2024/01/24 12:03:25;;;;;;;12.38;2.42;;;;;;;;;;5100979;27;20039;-64
2024/01/24 12:05:50;;;;;;;9.07;2.23;;;;;;;;;;5122315;27;20480;-64
2024/01/24 12:08:16;;;;;;;13.57;2.43;;;;;;;;;;5103197;27;20226;-64
2024/01/24 12:10:41;;;;;;;12.50;2.23;;;;;;;;;;5110988;27;20048;-64
2024/01/24 12:13:07;;;;;;;20.43;2.80;;;;;;;;;;5114020;27;20379;-64
2024/01/24 12:15:33;;;;;;;14.10;2.40;;;;;;;;;;5112015;27;20486;-64
2024/01/24 12:18:16;;;;;;;11.27;2.43;;;;;;;;;;5116396;27;20027;-64
2024/01/24 12:20:45;;;;;;;11.80;2.27;;;;;;;;;;5111912;28;20018;-64
2024/01/24 12:23:11;;;;;;;13.80;3.10;;;;;;;;;;5113334;27;20387;-64
2024/01/24 12:25:36;;;;;;;13.27;2.47;;;;;;;;;;5120452;27;20026;-65
2024/01/24 12:28:02;;;;;;;18.93;3.57;;;;;;;;;;5115285;27;20038;-64
2024/01/24 12:30:32;;;;;;;19.77;2.57;;;;;;;;;;5112850;27;20020;-64
2024/01/24 12:32:58;;;;;;;19.63;2.73;;;;;;;;;;5101957;28;20026;-65
2024/01/24 12:35:24;;;;;;;18.53;2.50;;;;;;;;;;5113412;27;20523;-65
2024/01/24 12:37:49;;;;;;;15.77;3.50;;;;;;;;;;5116851;27;20008;-64
2024/01/24 12:40:16;;;;;;;12.97;2.23;;;;;;;;;;5097135;27;20027;-64
2024/01/24 12:42:41;;;;;;;19.90;3.20;;;;;;;;;;5112685;27;20463;-64
2024/01/24 12:45:13;;;;;;;13.00;2.93;;;;;;;;;;5116036;27;20103;-64
2024/01/24 12:47:39;;;;;;;14.20;2.30;;;;;;;;;;5115443;27;20023;-61
2024/01/24 12:50:05;;;;;;;14.90;3.37;;;;;;;;;;5111179;27;20073;-60
2024/01/24 12:52:30;;;;;;;10.57;1.70;;;;;;;;;;5109151;27;20030;-61
2024/01/24 12:54:55;;;;;;;15.50;3.30;;;;;;;;;;5121404;27;20463;-60
2024/01/24 12:57:22;;;;;;;9.77;1.97;;;;;;;;;;5118354;27;20451;-60
2024/01/24 12:59:47;;;;;;;18.27;3.67;;;;;;;;;;5115877;27;20019;-61
2024/01/24 13:02:13;;;;;;;12.37;2.10;;;;;;;;;;5112428;27;20020;-60
2024/01/24 13:04:41;;;;;;;15.13;2.37;;;;;;;;;;5119424;27;20043;-61
2024/01/24 13:07:06;;;;;;;16.87;2.53;;;;;;;;;;5113039;27;20023;-60
2024/01/24 13:09:32;;;;;;;18.67;2.70;;;;;;;;;;5109839;27;20026;-61
2024/01/24 13:11:57;;;;;;;18.43;2.37;;;;;;;;;;5111251;27;20027;-61
2024/01/24 13:14:22;;;;;;;12.27;2.37;;;;;;;;;;5122910;27;20022;-60
2024/01/24 13:16:47;;;;;;;12.50;2.83;;;;;;;;;;5117796;27;20022;-61
2024/01/24 13:19:13;;;;;;;15.13;2.53;;;;;;;;;;5120558;27;20531;-60
2024/01/24 13:21:38;;;;;;;22.07;3.40;;;;;;;;;;5119177;27;20016;-60
2024/01/24 13:24:04;;;;;;;12.50;2.33;;;;;;;;;;5119907;27;20027;-60
2024/01/24 13:26:29;;;;;;;27.40;2.30;;;;;;;;;;5116751;27;20027;-61
2024/01/24 13:28:55;;;;;;;12.40;2.00;;;;;;;;;;5112413;27;20016;-60
2024/01/24 13:31:21;;;;;;;16.60;2.30;;;;;;;;;;5117624;27;20018;-60
2024/01/24 13:33:48;;;;;;;22.57;3.00;;;;;;;;;;5113831;27;20022;-61
2024/01/24 13:36:16;;;;;;;19.07;2.53;;;;;;;;;;5112006;27;20122;-60
2024/01/24 13:38:41;;;;;;;13.70;2.43;;;;;;;;;;5112366;27;20004;-60
2024/01/24 13:41:06;;;;;;;8.20;1.77;;;;;;;;;;5091899;28;20035;-60
2024/01/24 13:43:32;;;;;;;18.47;2.73;;;;;;;;;;5109533;28;20060;-60
2024/01/24 13:45:57;;;;;;;15.87;2.93;;;;;;;;;;5114624;27;20090;-61
2024/01/24 13:48:23;;;;;;;14.17;2.50;;;;;;;;;;5113248;27;20429;-60
2024/01/24 13:50:48;;;;;;;13.63;2.40;;;;;;;;;;5106127;28;20031;-61
2024/01/24 13:53:13;;;;;;;15.87;2.53;;;;;;;;;;5112795;27;20463;-60
2024/01/24 13:55:39;;;;;;;10.97;2.03;;;;;;;;;;5112169;27;20422;-60
2024/01/24 13:58:05;;;;;;;16.13;3.53;;;;;;;;;;5095910;28;20367;-64
2024/01/24 14:00:30;;;;;;;18.80;2.40;;;;;;;;;;5108460;27;20027;-65
2024/01/24 14:02:55;;;;;;;14.30;2.77;;;;;;;;;;5108992;27;20100;-65
2024/01/24 14:05:21;;;;;;;9.07;2.13;;;;;;;;;;5114317;27;20023;-64
2024/01/24 14:07:46;;;;;;;10.30;2.20;;;;;;;;;;5115911;27;20031;-64
2024/01/24 14:10:11;;;;;;;16.70;2.93;;;;;;;;;;5109462;27;20019;-65
2024/01/24 14:12:36;;;;;;;22.43;2.83;;;;;;;;;;5118335;27;20023;-65
2024/01/24 14:15:04;;;;;;;16.83;2.50;;;;;;;;;;5114856;27;20095;-65
2024/01/24 14:17:30;;;;;;;12.77;3.30;;;;;;;;;;5112954;27;20026;-64
2024/01/24 14:19:56;;;;;;;13.27;2.37;;;;;;;;;;5114860;27;20016;-64
2024/01/24 14:22:21;;;;;;;19.33;2.63;;;;;;;;;;5109431;27;20533;-65
2024/01/24 14:24:46;;;;;;;17.63;3.00;;;;;;;;;;5102383;28;20023;-65
2024/01/24 14:27:11;;;;;;;14.20;2.10;;;;;;;;;;5096307;28;20093;-64
2024/01/24 14:29:37;;;;;;;19.43;2.43;;;;;;;;;;5118324;28;20031;-65